Time;durP1;ratioP1;P1;durP2;ratioP2;P2;SDS_P1;SDS_P2;PMS_P1;PMS_P2;Temp;Humidity;BMP_temperature;BMP_pressure;BME280_temperature;BME280_humidity;BME280_pressure;Samples;Min_cycle;Max_cycle;Signal;HPM_P1;HPM_P2
2022/04/18 00:00:30;;;;;;;3.28;1.33;;;9.50;56.80;;;;;;6123817;23;20438;-80
2022/04/18 00:02:59;;;;;;;5.28;1.58;;;9.40;56.70;;;;;;6147357;23;20731;-80
2022/04/18 00:05:26;;;;;;;4.95;1.63;;;9.40;56.20;;;;;;6111054;23;20418;-79
2022/04/18 00:07:53;;;;;;;4.80;1.40;;;9.40;56.80;;;;;;6122259;23;20446;-79
2022/04/18 00:10:20;;;;;;;4.20;2.00;;;9.40;57.00;;;;;;6123599;23;20383;-80
2022/04/18 00:12:47;;;;;;;4.28;1.50;;;9.30;57.50;;;;;;6110115;23;20395;-79
2022/04/18 00:15:14;;;;;;;4.25;1.67;;;9.20;59.20;;;;;;6123491;23;20376;-79
2022/04/18 00:17:41;;;;;;;2.55;1.40;;;9.00;58.90;;;;;;6124363;23;20419;-79
2022/04/18 00:20:09;;;;;;;3.03;1.83;;;9.00;59.00;;;;;;6123261;23;20914;-78
2022/04/18 00:22:37;;;;;;;4.88;1.70;;;8.80;59.60;;;;;;6121756;23;20431;-79
2022/04/18 00:25:04;;;;;;;4.23;1.60;;;8.70;60.20;;;;;;6123553;23;20375;-79
2022/04/18 00:27:31;;;;;;;3.97;1.70;;;8.80;59.30;;;;;;6123007;23;20411;-79
2022/04/18 00:29:58;;;;;;;6.38;2.13;;;8.70;59.60;;;;;;6123360;23;20427;-79
2022/04/18 00:32:25;;;;;;;4.13;1.70;;;8.80;59.00;;;;;;6124604;23;20379;-80
2022/04/18 00:34:52;;;;;;;6.07;1.80;;;8.70;59.50;;;;;;6123917;23;20390;-80
2022/04/18 00:37:19;;;;;;;6.47;1.60;;;8.80;59.10;;;;;;6122860;23;20840;-79
2022/04/18 00:39:46;;;;;;;4.57;1.83;;;8.90;57.30;;;;;;6122198;23;20384;-79
2022/04/18 00:42:13;;;;;;;4.97;1.83;;;8.90;57.70;;;;;;6123225;23;20375;-79
2022/04/18 00:44:40;;;;;;;4.10;1.70;;;8.90;58.10;;;;;;6121767;23;20447;-79
2022/04/18 00:47:07;;;;;;;5.93;1.88;;;8.80;59.00;;;;;;6122768;23;20756;-78
2022/04/18 00:49:34;;;;;;;5.03;2.17;;;8.60;59.90;;;;;;6124167;23;20388;-79
2022/04/18 00:52:03;;;;;;;5.53;2.15;;;8.60;59.20;;;;;;6121551;23;20415;-79
2022/04/18 00:54:32;;;;;;;4.55;2.17;;;8.50;60.30;;;;;;6123269;23;20447;-80
2022/04/18 00:56:59;;;;;;;4.40;1.70;;;8.40;61.60;;;;;;6121233;23;20434;-79
2022/04/18 00:59:27;;;;;;;4.90;2.00;;;8.30;59.70;;;;;;6122759;23;20384;-79
2022/04/18 01:01:54;;;;;;;5.53;1.80;;;8.30;59.10;;;;;;6145124;23;20375;-80
2022/04/18 01:04:21;;;;;;;4.27;1.90;;;8.40;59.40;;;;;;6123596;23;20376;-79
2022/04/18 01:06:48;;;;;;;3.83;1.80;;;8.40;60.10;;;;;;6123106;23;20430;-79
2022/04/18 01:09:15;;;;;;;2.80;1.60;;;8.40;59.70;;;;;;6122673;23;20440;-79
2022/04/18 01:11:42;;;;;;;5.97;1.87;;;8.50;59.20;;;;;;6124368;23;20880;-79
2022/04/18 01:14:09;;;;;;;4.22;1.55;;;8.50;58.40;;;;;;6118404;23;20834;-79
2022/04/18 01:16:36;;;;;;;4.50;1.48;;;8.50;58.20;;;;;;6117835;23;20383;-79
2022/04/18 01:19:04;;;;;;;4.17;1.47;;;8.60;57.60;;;;;;6124148;23;20368;-79
2022/04/18 01:21:31;;;;;;;6.03;1.75;;;8.60;57.10;;;;;;6113399;23;20731;-79
2022/04/18 01:23:59;;;;;;;3.60;1.67;;;8.60;57.10;;;;;;6121224;23;20379;-79
2022/04/18 01:29:12;;;;;;;4.72;1.88;;;8.40;59.00;;;;;;6122259;23;20372;-80
2022/04/18 01:31:40;;;;;;;4.35;1.90;;;8.40;59.70;;;;;;6123733;23;20376;-80
2022/04/18 01:34:08;;;;;;;8.20;2.50;;;8.30;59.90;;;;;;6122254;23;20491;-78
2022/04/18 01:36:35;;;;;;;4.85;2.28;;;8.10;61.80;;;;;;6123829;23;20780;-79
2022/04/18 01:39:06;;;;;;;4.93;2.25;;;7.90;62.90;;;;;;6097931;23;20380;-79
2022/04/18 01:41:33;;;;;;;6.60;2.30;;;7.90;64.00;;;;;;6087606;23;20384;-79
2022/04/18 01:44:00;;;;;;;4.78;2.28;;;7.70;64.20;;;;;;6121948;23;20924;-78
2022/04/18 01:46:27;;;;;;;5.43;2.35;;;7.70;64.60;;;;;;6123292;23;20666;-79
2022/04/18 01:48:54;;;;;;;6.60;2.40;;;7.70;64.40;;;;;;6119468;23;20388;-78
2022/04/18 01:51:21;;;;;;;4.05;2.22;;;7.70;65.00;;;;;;6115770;23;20427;-79
2022/04/18 01:53:55;;;;;;;4.82;2.10;;;7.70;65.20;;;;;;6123578;23;20455;-79
2022/04/18 01:56:22;;;;;;;3.63;1.70;;;7.70;63.40;;;;;;6121583;23;20399;-78
2022/04/18 01:58:49;;;;;;;3.97;1.87;;;7.70;63.00;;;;;;6111697;23;20955;-79
2022/04/18 02:01:16;;;;;;;4.75;2.03;;;7.70;63.40;;;;;;6137687;23;20380;-79
2022/04/18 02:03:43;;;;;;;3.25;2.10;;;7.60;64.10;;;;;;6123015;23;20371;-79
2022/04/18 02:06:11;;;;;;;5.45;1.80;;;7.60;63.40;;;;;;6116873;23;20372;-79
2022/04/18 02:08:38;;;;;;;5.43;2.00;;;7.70;62.80;;;;;;6122957;23;20878;-79
2022/04/18 02:11:05;;;;;;;3.33;1.92;;;7.70;62.80;;;;;;6114271;23;20386;-79
2022/04/18 02:13:32;;;;;;;4.93;1.77;;;7.70;62.20;;;;;;6120772;23;20693;-80
2022/04/18 02:16:00;;;;;;;4.90;2.40;;;7.60;62.90;;;;;;6122757;23;20418;-79
2022/04/18 02:18:29;;;;;;;7.13;2.53;;;7.60;62.50;;;;;;6121824;23;20435;-79
2022/04/18 02:20:58;;;;;;;3.20;1.77;;;7.60;62.80;;;;;;6110630;23;20390;-79
2022/04/18 02:23:25;;;;;;;5.20;1.80;;;7.50;63.20;;;;;;6120708;23;20429;-78
2022/04/18 02:25:52;;;;;;;5.50;2.30;;;7.50;63.10;;;;;;6123097;23;20392;-78
2022/04/18 02:28:18;;;;;;;4.28;1.88;;;7.50;62.40;;;;;;6123024;23;20391;-79
2022/04/18 02:30:46;;;;;;;5.55;2.08;;;7.50;62.70;;;;;;6121761;23;20451;-79
2022/04/18 02:33:13;;;;;;;5.57;2.10;;;7.50;62.70;;;;;;6121113;23;20531;-79
2022/04/18 02:35:40;;;;;;;5.20;1.65;;;7.40;62.70;;;;;;6121683;23;20375;-79
2022/04/18 02:38:07;;;;;;;4.13;1.80;;;7.40;61.70;;;;;;6123849;23;20713;-78
2022/04/18 02:40:34;;;;;;;4.28;1.60;;;7.30;62.80;;;;;;6121899;23;20709;-82
2022/04/18 02:43:02;;;;;;;3.33;1.52;;;7.30;62.40;;;;;;6121873;23;20380;-79
2022/04/18 02:45:31;;;;;;;4.20;1.65;;;7.40;61.10;;;;;;6110957;23;20383;-78
2022/04/18 02:47:59;;;;;;;6.47;1.85;;;7.50;60.00;;;;;;6124231;23;20391;-79
2022/04/18 02:50:26;;;;;;;3.55;1.75;;;7.50;60.00;;;;;;6122234;23;20387;-79
2022/04/18 02:52:55;;;;;;;4.20;1.30;;;7.40;60.50;;;;;;6111899;23;20374;-79
2022/04/18 02:55:25;;;;;;;3.55;1.60;;;7.30;59.80;;;;;;6121294;23;20384;-78
2022/04/18 02:57:53;;;;;;;3.00;1.53;;;7.30;59.40;;;;;;6074304;23;20386;-79
2022/04/18 03:00:20;;;;;;;3.80;1.40;;;7.40;59.10;;;;;;6120100;23;20387;-79
2022/04/18 03:02:47;;;;;;;3.35;1.27;;;7.30;59.00;;;;;;6144946;23;20741;-79
2022/04/18 03:05:14;;;;;;;1.60;1.10;;;7.40;58.90;;;;;;6101123;23;20447;-77
2022/04/18 03:07:42;;;;;;;4.22;1.52;;;7.40;57.60;;;;;;6112217;23;20413;-79
2022/04/18 03:10:09;;;;;;;3.17;1.30;;;7.40;57.20;;;;;;6121851;23;20375;-79
2022/04/18 03:12:37;;;;;;;3.45;1.27;;;7.40;56.80;;;;;;6123146;23;20388;-79
2022/04/18 03:15:05;;;;;;;4.85;1.20;;;7.40;56.40;;;;;;6116543;23;20436;-80
2022/04/18 03:17:32;;;;;;;2.20;1.02;;;7.40;56.40;;;;;;6119978;23;20387;-78
2022/04/18 03:19:59;;;;;;;3.35;1.45;;;7.40;57.00;;;;;;6123454;23;20367;-79
2022/04/18 03:22:25;;;;;;;3.33;1.30;;;7.40;57.20;;;;;;6120623;23;20407;-80
2022/04/18 03:24:57;;;;;;;2.95;1.00;;;7.40;57.80;;;;;;6122517;23;20390;-79
2022/04/18 03:27:25;;;;;;;2.97;1.38;;;7.30;58.00;;;;;;6123443;23;20386;-78
2022/04/18 03:29:51;;;;;;;4.68;1.50;;;7.30;58.70;;;;;;6123669;23;20469;-78
2022/04/18 03:32:19;;;;;;;5.55;1.30;;;7.10;59.80;;;;;;6121540;23;20708;-79
2022/04/18 03:34:46;;;;;;;3.20;1.30;;;7.00;59.30;;;;;;6098334;23;20372;-79
2022/04/18 03:39:58;;;;;;;4.35;1.20;;;7.10;58.90;;;;;;6123370;23;20439;-79
2022/04/18 03:42:31;;;;;;;1.77;1.00;;;7.20;58.80;;;;;;6121790;23;20380;-79
2022/04/18 03:45:03;;;;;;;6.13;1.20;;;7.20;58.50;;;;;;6121890;23;20876;-78
2022/04/18 03:47:30;;;;;;;2.63;1.05;;;7.20;58.40;;;;;;6122769;23;20380;-78
2022/04/18 03:49:59;;;;;;;1.73;0.90;;;7.20;58.30;;;;;;6086674;23;20380;-78
2022/04/18 03:52:26;;;;;;;2.70;1.30;;;7.20;59.00;;;;;;6123215;23;20387;-78
2022/04/18 03:54:53;;;;;;;2.50;1.30;;;7.10;60.20;;;;;;6121563;23;20376;-79
2022/04/18 03:57:20;;;;;;;4.90;1.87;;;7.00;60.10;;;;;;6114256;23;20409;-78
2022/04/18 03:59:47;;;;;;;4.90;1.40;;;6.90;60.40;;;;;;6121835;23;20380;-78
2022/04/18 04:02:17;;;;;;;2.55;1.10;;;6.90;60.70;;;;;;6124206;23;20375;-77
2022/04/18 04:04:44;;;;;;;5.10;1.43;;;6.90;60.90;;;;;;6123541;23;20442;-79
2022/04/18 04:07:11;;;;;;;4.05;1.33;;;6.90;61.30;;;;;;6123469;23;20407;-78
2022/04/18 04:09:38;;;;;;;2.15;1.38;;;6.90;61.00;;;;;;6121278;23;20375;-79
2022/04/18 04:12:05;;;;;;;2.65;1.15;;;6.90;61.70;;;;;;6110223;23;20501;-78
2022/04/18 04:14:33;;;;;;;3.50;1.40;;;6.80;61.40;;;;;;6121413;23;20379;-78
2022/04/18 04:17:00;;;;;;;3.60;1.40;;;6.70;60.90;;;;;;6124666;23;20375;-78
2022/04/18 04:19:30;;;;;;;3.70;1.20;;;6.70;60.50;;;;;;6119708;23;20372;-78
2022/04/18 04:21:58;;;;;;;5.03;1.67;;;6.70;60.50;;;;;;6121523;23;20837;-79
2022/04/18 04:24:27;;;;;;;3.60;1.45;;;6.70;61.00;;;;;;6124730;23;20439;-78
2022/04/18 04:27:02;;;;;;;6.50;1.50;;;6.70;61.50;;;;;;6104140;23;20844;-78
2022/04/18 04:29:29;;;;;;;4.43;1.67;;;6.70;61.70;;;;;;6120659;23;20738;-80
2022/04/18 04:31:56;;;;;;;4.43;1.40;;;6.70;61.30;;;;;;6120970;23;20380;-78
2022/04/18 04:34:23;;;;;;;3.38;1.63;;;6.70;61.40;;;;;;6118310;23;20414;-78
2022/04/18 04:36:50;;;;;;;3.22;1.60;;;6.70;62.10;;;;;;6128193;23;20380;-79
2022/04/18 04:39:17;;;;;;;4.27;1.70;;;6.60;62.50;;;;;;6125439;23;20380;-79
2022/04/18 04:41:44;;;;;;;2.17;1.10;;;6.60;62.20;;;;;;6112660;23;20726;-77
2022/04/18 04:44:12;;;;;;;3.13;1.60;;;6.60;61.90;;;;;;6122233;23;20829;-78
2022/04/18 04:46:39;;;;;;;3.87;1.63;;;6.50;62.40;;;;;;6128396;23;20469;-79
2022/04/18 04:49:07;;;;;;;3.88;1.50;;;6.50;62.30;;;;;;6125499;23;20380;-78
2022/04/18 04:51:33;;;;;;;4.38;1.98;;;6.40;62.90;;;;;;6125263;23;20383;-78
2022/04/18 04:54:00;;;;;;;6.30;1.90;;;6.40;62.80;;;;;;6123058;23;20856;-79
2022/04/18 04:56:28;;;;;;;7.50;2.30;;;6.30;63.00;;;;;;6126568;23;20745;-78
2022/04/18 04:58:55;;;;;;;4.82;1.98;;;6.30;63.70;;;;;;6129368;23;20383;-78
2022/04/18 05:01:22;;;;;;;5.13;2.17;;;6.20;63.90;;;;;;6143754;23;20414;-78
2022/04/18 05:03:50;;;;;;;5.15;1.90;;;6.10;64.80;;;;;;6100235;23;20384;-78
2022/04/18 05:06:17;;;;;;;5.90;1.85;;;6.00;65.60;;;;;;6123325;23;20376;-78
2022/04/18 05:08:44;;;;;;;6.20;1.80;;;6.00;65.50;;;;;;6126387;23;20387;-79
2022/04/18 05:11:11;;;;;;;2.88;1.50;;;6.00;66.00;;;;;;6126330;23;20582;-78
2022/04/18 05:13:39;;;;;;;3.47;1.92;;;6.00;65.60;;;;;;6117033;23;20397;-78
2022/04/18 05:16:06;;;;;;;5.32;1.83;;;6.10;65.40;;;;;;6136018;23;20895;-77
2022/04/18 05:18:38;;;;;;;7.00;2.17;;;6.20;65.40;;;;;;6126078;23;20384;-78
2022/04/18 05:21:05;;;;;;;5.57;2.60;;;6.30;65.20;;;;;;6121674;23;20443;-78
2022/04/18 05:23:33;;;;;;;3.55;1.90;;;6.40;64.80;;;;;;6130587;23;20879;-78
2022/04/18 05:25:59;;;;;;;4.72;1.88;;;6.60;64.10;;;;;;6133820;23;20387;-78
2022/04/18 05:28:29;;;;;;;5.13;2.22;;;6.60;63.40;;;;;;6119495;23;20384;-77
2022/04/18 05:31:00;;;;;;;3.42;1.95;;;6.80;62.90;;;;;;6124623;23;20387;-79
2022/04/18 05:33:28;;;;;;;4.25;1.90;;;6.90;62.40;;;;;;6116855;23;20425;-79
2022/04/18 05:35:58;;;;;;;4.72;1.88;;;7.00;62.20;;;;;;6111183;23;20430;-78
2022/04/18 05:38:25;;;;;;;5.78;2.10;;;7.20;61.00;;;;;;6117363;23;20379;-79
2022/04/18 05:40:52;;;;;;;4.82;2.03;;;7.40;60.30;;;;;;6128836;23;20430;-77
2022/04/18 05:43:18;;;;;;;3.97;1.80;;;7.60;59.50;;;;;;6113284;23;20429;-79
2022/04/18 05:45:50;;;;;;;3.53;1.83;;;7.80;59.30;;;;;;6108249;23;20401;-79
2022/04/18 05:48:19;;;;;;;4.65;1.63;;;7.90;58.40;;;;;;6125110;23;20839;-79
2022/04/18 05:50:47;;;;;;;4.05;1.90;;;8.10;57.80;;;;;;6121417;23;20386;-78
2022/04/18 05:53:16;;;;;;;4.72;2.22;;;8.30;57.50;;;;;;6121057;23;21406;-78
2022/04/18 05:55:43;;;;;;;3.47;1.73;;;8.40;57.00;;;;;;6124590;23;20387;-79
2022/04/18 05:58:11;;;;;;;6.43;2.00;;;8.50;56.70;;;;;;6124123;23;20855;-79
2022/04/18 06:00:38;;;;;;;4.50;1.95;;;8.70;56.40;;;;;;6124775;23;20415;-79
2022/04/18 06:03:05;;;;;;;5.22;2.03;;;8.80;56.70;;;;;;6125828;23;20376;-78
2022/04/18 06:05:32;;;;;;;4.90;2.03;;;8.90;56.20;;;;;;6113184;23;20698;-79
2022/04/18 06:08:00;;;;;;;4.13;1.88;;;8.90;56.60;;;;;;6118880;23;20391;-79
2022/04/18 06:10:27;;;;;;;4.40;2.10;;;9.00;56.50;;;;;;6123854;23;20484;-78
2022/04/18 06:12:55;;;;;;;5.72;2.33;;;9.10;56.20;;;;;;6119340;23;20390;-78
2022/04/18 06:15:25;;;;;;;3.92;1.80;;;9.20;55.30;;;;;;6124640;23;20376;-78
2022/04/18 06:17:54;;;;;;;4.33;2.20;;;9.30;55.40;;;;;;6122604;23;20516;-79
2022/04/18 06:20:21;;;;;;;5.22;1.98;;;9.40;54.50;;;;;;6124404;23;20384;-79
2022/04/18 06:22:48;;;;;;;6.18;2.42;;;9.50;55.00;;;;;;6120693;23;20847;-79
2022/04/18 06:25:14;;;;;;;6.47;2.40;;;9.60;53.80;;;;;;6135869;23;20415;-80
2022/04/18 06:27:42;;;;;;;4.30;1.95;;;9.70;54.80;;;;;;6122023;23;20698;-78
2022/04/18 06:30:11;;;;;;;4.45;2.15;;;9.70;54.40;;;;;;6119450;23;20372;-84
2022/04/18 06:32:40;;;;;;;5.47;1.88;;;9.80;54.30;;;;;;6120024;23;20883;-84
2022/04/18 06:35:08;;;;;;;4.60;2.70;;;9.80;54.10;;;;;;6118146;23;20858;-82
2022/04/18 06:37:35;;;;;;;4.20;1.90;;;9.90;53.90;;;;;;6122150;23;20368;-82
2022/04/18 06:40:03;;;;;;;4.53;1.98;;;10.00;53.90;;;;;;6112650;23;20374;-84
2022/04/18 06:42:33;;;;;;;3.53;2.22;;;10.10;53.60;;;;;;6118973;23;20394;-82
2022/04/18 06:45:01;;;;;;;5.40;2.10;;;10.20;54.00;;;;;;6120536;23;20389;-84
2022/04/18 06:47:28;;;;;;;13.43;5.85;;;10.30;53.40;;;;;;6120356;23;20376;-83
2022/04/18 06:49:57;;;;;;;27.02;8.50;;;10.40;52.60;;;;;;6121240;23;20380;-81
2022/04/18 06:52:24;;;;;;;4.60;2.38;;;10.60;51.80;;;;;;6119469;23;20378;-83
2022/04/18 06:54:51;;;;;;;5.50;2.23;;;10.60;51.30;;;;;;6122366;23;20438;-82
2022/04/18 06:57:18;;;;;;;4.25;1.92;;;10.70;51.30;;;;;;6122239;23;20435;-82
2022/04/18 06:59:46;;;;;;;5.85;2.35;;;10.80;49.80;;;;;;6115399;23;288457;-83
2022/04/18 07:02:13;;;;;;;106.35;94.10;;;10.90;50.00;;;;;;6121074;23;20455;-83
2022/04/18 07:04:40;;;;;;;15.50;13.57;;;11.00;50.70;;;;;;6121618;23;20398;-81
2022/04/18 07:07:08;;;;;;;5.53;2.08;;;11.20;51.10;;;;;;6121718;23;20376;-84
2022/04/18 07:09:37;;;;;;;6.03;2.20;;;11.40;51.20;;;;;;6120914;23;20376;-86
2022/04/18 07:12:04;;;;;;;4.47;1.70;;;11.70;51.20;;;;;;6122151;23;20380;-83
2022/04/18 07:14:31;;;;;;;3.72;1.80;;;11.80;50.50;;;;;;6125809;23;20388;-81
2022/04/18 07:16:58;;;;;;;2.20;1.40;;;12.00;49.40;;;;;;6122067;23;20383;-86
2022/04/18 07:19:24;;;;;;;5.82;1.67;;;12.20;48.00;;;;;;6120641;23;20379;-81
2022/04/18 07:21:51;;;;;;;2.35;1.10;;;12.50;44.40;;;;;;6125200;23;20380;-82
2022/04/18 07:24:18;;;;;;;5.72;2.20;;;12.60;41.50;;;;;;6122023;23;20411;-83
2022/04/18 07:26:45;;;;;;;4.03;1.50;;;12.80;42.40;;;;;;6122916;23;20379;-86
2022/04/18 07:29:12;;;;;;;5.30;1.80;;;13.00;40.80;;;;;;6122199;23;20380;-80
2022/04/18 07:31:39;;;;;;;5.13;1.53;;;13.10;41.90;;;;;;6120729;23;21303;-81
2022/04/18 07:34:06;;;;;;;4.03;1.40;;;13.20;40.70;;;;;;6123891;23;20384;-80
2022/04/18 07:36:33;;;;;;;3.92;1.17;;;13.20;38.90;;;;;;6123012;23;20435;-83
2022/04/18 07:39:00;;;;;;;4.90;1.20;;;13.40;39.50;;;;;;6127812;23;20760;-84
2022/04/18 07:41:29;;;;;;;2.75;1.45;;;13.50;38.10;;;;;;6125480;23;20384;-82
2022/04/18 07:43:57;;;;;;;2.17;0.95;;;13.50;37.50;;;;;;6125314;23;20379;-80
2022/04/18 07:46:24;;;;;;;3.20;1.13;;;13.60;37.60;;;;;;6127782;23;20471;-82
2022/04/18 07:48:52;;;;;;;4.20;1.10;;;13.70;38.40;;;;;;6132908;23;20894;-82
2022/04/18 07:51:34;;;;;;;7.97;1.33;;;13.70;35.70;;;;;;6123415;23;20429;-83
2022/04/18 07:54:03;;;;;;;3.70;1.10;;;13.70;36.50;;;;;;6123313;23;20387;-83
2022/04/18 07:56:31;;;;;;;2.95;1.17;;;13.90;35.60;;;;;;6127320;23;20442;-82
2022/04/18 07:58:58;;;;;;;3.42;1.10;;;14.00;36.00;;;;;;6123919;23;20379;-80
2022/04/18 08:01:30;;;;;;;2.17;0.90;;;14.30;37.80;;;;;;6124743;23;20410;-83
2022/04/18 08:04:00;;;;;;;2.97;1.00;;;14.50;35.50;;;;;;6128618;23;20387;-81
2022/04/18 08:06:28;;;;;;;3.95;1.15;;;14.50;35.10;;;;;;6124855;23;20394;-80
2022/04/18 08:08:55;;;;;;;46.25;40.50;;;14.50;34.20;;;;;;6127331;23;20697;-83
2022/04/18 08:11:23;;;;;;;4.68;1.40;;;14.60;35.40;;;;;;6124862;23;20383;-84
2022/04/18 08:13:50;;;;;;;12.73;11.43;;;14.80;33.90;;;;;;6099311;23;20391;-82
2022/04/18 08:16:18;;;;;;;3.67;1.00;;;14.80;34.30;;;;;;6123344;23;20411;-83
2022/04/18 08:18:45;;;;;;;3.85;2.60;;;15.00;34.40;;;;;;6126736;23;20383;-82
2022/04/18 08:21:17;;;;;;;27.98;25.67;;;15.20;34.40;;;;;;6122873;23;20415;-82
2022/04/18 08:23:46;;;;;;;3.17;1.20;;;15.10;32.00;;;;;;6125689;23;20380;-81
2022/04/18 08:26:13;;;;;;;3.35;0.98;;;15.10;33.30;;;;;;6123512;23;20434;-82
2022/04/18 08:28:40;;;;;;;4.20;1.10;;;15.20;32.00;;;;;;6122369;23;20821;-83
2022/04/18 08:31:08;;;;;;;3.38;0.90;;;15.30;31.20;;;;;;6122930;23;20387;-82
2022/04/18 08:33:35;;;;;;;3.35;1.00;;;15.30;31.40;;;;;;6125507;23;20919;-84
2022/04/18 08:36:03;;;;;;;2.60;0.93;;;15.30;33.00;;;;;;6124145;23;20382;-82
2022/04/18 08:38:30;;;;;;;3.55;1.13;;;15.60;33.00;;;;;;6122281;23;20729;-82
2022/04/18 08:41:01;;;;;;;7.40;1.50;;;15.60;32.20;;;;;;6124576;23;20440;-84
2022/04/18 08:43:28;;;;;;;3.35;1.05;;;15.60;33.00;;;;;;6125516;23;20384;-82
2022/04/18 08:45:56;;;;;;;3.28;1.20;;;15.80;32.60;;;;;;6123019;23;20434;-82
2022/04/18 08:53:58;;;;;;;50.08;45.78;;;16.10;32.50;;;;;;6129516;23;20470;-84
2022/04/18 08:56:28;;;;;;;3.50;1.63;;;15.90;30.90;;;;;;6125249;23;20463;-84
2022/04/18 08:58:55;;;;;;;4.37;1.17;;;15.80;31.10;;;;;;6123178;23;20384;-85
2022/04/18 09:01:22;;;;;;;3.75;1.40;;;15.90;31.80;;;;;;6123680;23;20380;-81
2022/04/18 09:03:49;;;;;;;3.30;1.40;;;16.20;31.60;;;;;;6148542;23;20852;-80
2022/04/18 09:06:16;;;;;;;5.93;5.33;;;15.90;30.40;;;;;;6124610;23;20923;-81
2022/04/18 09:08:52;;;;;;;2.80;0.93;;;16.20;32.10;;;;;;6123637;23;20380;-81
2022/04/18 09:11:29;;;;;;;3.45;1.20;;;16.30;31.60;;;;;;6124244;23;20435;-83
2022/04/18 09:14:17;;;;;;;3.93;3.63;;;16.50;31.80;;;;;;6121361;23;20682;-81
2022/04/18 09:16:44;;;;;;;4.73;1.10;;;16.40;31.30;;;;;;6121384;23;20387;-83
2022/04/18 09:19:16;;;;;;;4.10;1.70;;;16.50;30.70;;;;;;6122965;23;20845;-81
2022/04/18 09:21:43;;;;;;;4.13;1.35;;;16.60;32.70;;;;;;6124329;23;20740;-82
2022/04/18 09:24:34;;;;;;;4.00;1.55;;;16.80;31.50;;;;;;6124228;23;20895;-83
2022/04/18 09:27:09;;;;;;;3.58;1.20;;;17.00;32.20;;;;;;6123556;23;20378;-81
2022/04/18 09:29:39;;;;;;;3.85;1.30;;;16.40;29.80;;;;;;6124011;23;20383;-78
2022/04/18 09:32:11;;;;;;;4.55;1.60;;;16.60;31.70;;;;;;6108896;23;20376;-76
2022/04/18 09:34:39;;;;;;;4.43;1.48;;;16.50;30.80;;;;;;6121102;23;20438;-81
2022/04/18 09:37:14;;;;;;;5.88;1.55;;;16.50;30.90;;;;;;6096759;23;20820;-76
2022/04/18 09:39:51;;;;;;;5.00;1.38;;;17.00;31.90;;;;;;6122120;23;20387;-79
2022/04/18 09:42:21;;;;;;;4.53;1.67;;;16.70;30.30;;;;;;6120924;23;20387;-84
2022/04/18 09:44:49;;;;;;;5.03;1.60;;;16.70;31.70;;;;;;6121603;23;20388;-76
2022/04/18 09:47:23;;;;;;;5.78;1.58;;;16.70;30.10;;;;;;6120881;23;20368;-80
2022/04/18 09:49:50;;;;;;;3.53;1.50;;;17.00;30.50;;;;;;6122932;23;20872;-78
2022/04/18 09:52:19;;;;;;;5.30;3.45;;;17.00;30.50;;;;;;6121620;23;20836;-80
2022/04/18 09:54:53;;;;;;;6.95;3.28;;;17.10;31.50;;;;;;6124025;23;20438;-80
2022/04/18 09:57:27;;;;;;;6.13;4.50;;;17.40;31.30;;;;;;6121633;23;20380;-82
2022/04/18 09:59:59;;;;;;;3.17;1.52;;;17.40;31.30;;;;;;6123010;23;20836;-81
2022/04/18 10:02:27;;;;;;;6.00;2.30;;;17.40;30.40;;;;;;6122440;23;20371;-83
2022/04/18 10:04:54;;;;;;;3.88;1.65;;;17.30;29.70;;;;;;6123210;23;20442;-81
2022/04/18 10:07:21;;;;;;;1.67;1.43;;;17.40;31.10;;;;;;6123067;23;21408;-79
2022/04/18 10:09:48;;;;;;;6.00;3.72;;;16.90;31.00;;;;;;6123238;23;20442;-78
2022/04/18 10:12:16;;;;;;;5.25;2.72;;;17.30;32.00;;;;;;6121975;23;20376;-83
2022/04/18 10:14:44;;;;;;;5.03;3.70;;;17.50;31.60;;;;;;6122540;23;20384;-82
2022/04/18 10:17:12;;;;;;;4.07;2.60;;;17.10;31.70;;;;;;6097124;23;20376;-76
2022/04/18 10:19:59;;;;;;;4.53;1.73;;;17.20;30.60;;;;;;6121248;23;20741;-76
2022/04/18 10:22:51;;;;;;;5.65;1.83;;;17.30;31.60;;;;;;6119051;23;20436;-77
2022/04/18 10:25:54;;;;;;;4.00;1.77;;;17.50;30.30;;;;;;6123545;23;20386;-82
2022/04/18 10:28:30;;;;;;;5.07;1.80;;;17.30;30.70;;;;;;6123831;23;20383;-83
2022/04/18 10:31:03;;;;;;;4.93;2.35;;;16.70;31.30;;;;;;6123922;23;20391;-80
2022/04/18 10:33:31;;;;;;;5.43;2.22;;;17.20;32.40;;;;;;6121122;23;20390;-80
2022/04/18 10:36:04;;;;;;;6.30;3.40;;;17.40;31.60;;;;;;6120904;23;20418;-76
2022/04/18 10:38:44;;;;;;;3.67;1.98;;;17.60;30.60;;;;;;6120617;23;20378;-79
2022/04/18 10:41:33;;;;;;;11.38;7.05;;;17.40;31.50;;;;;;6120171;23;20454;-77
2022/04/18 10:44:13;;;;;;;40.70;32.50;;;17.60;31.90;;;;;;6120591;23;20418;-75
2022/04/18 10:47:03;;;;;;;15.43;9.15;;;18.10;32.30;;;;;;6122006;23;20368;-80
2022/04/18 10:49:35;;;;;;;167.80;107.80;;;18.30;29.90;;;;;;6119672;23;20380;-77
2022/04/18 10:52:18;;;;;;;217.93;163.70;;;18.40;29.70;;;;;;6121054;23;20379;-77
2022/04/18 10:54:59;;;;;;;17.30;10.25;;;18.80;28.90;;;;;;6120596;23;20447;-77
2022/04/18 10:57:27;;;;;;;58.60;35.10;;;18.70;30.00;;;;;;6121614;23;20864;-78
2022/04/18 10:59:55;;;;;;;86.38;45.72;;;18.40;29.70;;;;;;6120283;23;20442;-76
2022/04/18 11:02:39;;;;;;;3.75;2.30;;;19.00;31.10;;;;;;6120013;23;20412;-78
2022/04/18 11:05:07;;;;;;;56.90;47.20;;;18.80;29.90;;;;;;6122283;23;20384;-79
2022/04/18 11:07:41;;;;;;;8.73;5.53;;;19.00;29.70;;;;;;6121050;23;20442;-81
2022/04/18 11:10:23;;;;;;;6.45;2.75;;;18.40;29.50;;;;;;6121211;23;20860;-75
2022/04/18 11:13:03;;;;;;;5.22;2.50;;;18.00;31.10;;;;;;6120567;23;20983;-76
2022/04/18 11:15:29;;;;;;;4.80;2.30;;;18.10;29.30;;;;;;6120470;23;20919;-77
2022/04/18 11:18:03;;;;;;;11.13;6.23;;;17.80;30.30;;;;;;6120269;23;20416;-78
2022/04/18 11:20:34;;;;;;;6.23;3.37;;;18.30;31.40;;;;;;6121192;23;20423;-79
2022/04/18 11:23:22;;;;;;;6.25;3.17;;;18.80;30.60;;;;;;6121545;23;20848;-79
2022/04/18 11:25:56;;;;;;;4.70;3.28;;;18.70;30.00;;;;;;6120621;23;20376;-76
2022/04/18 11:28:32;;;;;;;10.27;4.95;;;19.40;30.60;;;;;;6122866;23;20444;-80
2022/04/18 11:30:59;;;;;;;5.93;3.13;;;18.90;29.30;;;;;;6120899;23;20843;-77
2022/04/18 11:33:25;;;;;;;6.30;3.13;;;18.20;29.80;;;;;;6120485;23;20856;-75
2022/04/18 11:36:00;;;;;;;4.47;2.20;;;18.60;30.60;;;;;;6118878;23;20384;-76
2022/04/18 11:38:27;;;;;;;6.65;2.95;;;19.00;30.60;;;;;;6122056;23;20468;-75
2022/04/18 11:40:54;;;;;;;6.70;2.70;;;19.00;29.40;;;;;;6119026;23;20421;-79
2022/04/18 11:43:22;;;;;;;5.28;2.60;;;18.70;30.60;;;;;;6122819;23;20729;-77
2022/04/18 11:45:49;;;;;;;4.63;2.78;;;19.00;29.90;;;;;;6122281;23;20438;-77
2022/04/18 11:48:22;;;;;;;4.90;2.40;;;19.20;30.10;;;;;;6123447;23;20379;-77
2022/04/18 11:50:51;;;;;;;5.22;2.63;;;18.80;28.70;;;;;;6124520;23;20438;-76
2022/04/18 11:53:33;;;;;;;5.53;2.38;;;19.00;31.40;;;;;;6124056;23;20383;-77
2022/04/18 11:56:05;;;;;;;4.07;2.63;;;19.50;30.40;;;;;;6111257;23;20384;-76
2022/04/18 11:58:41;;;;;;;5.07;2.77;;;19.10;30.00;;;;;;6123009;23;20550;-78
2022/04/18 12:06:49;;;;;;;4.22;3.03;;;18.80;30.00;;;;;;6122517;23;20926;-76
2022/04/18 12:09:21;;;;;;;4.80;2.30;;;19.10;29.90;;;;;;6123896;23;20697;-76
2022/04/18 12:11:48;;;;;;;5.68;2.55;;;19.70;29.90;;;;;;6122208;23;20411;-76
2022/04/18 12:14:16;;;;;;;4.65;2.50;;;19.50;29.10;;;;;;6122319;23;20856;-77
2022/04/18 12:16:43;;;;;;;3.90;2.55;;;19.60;29.30;;;;;;6115187;23;20438;-80
2022/04/18 12:19:14;;;;;;;5.60;2.90;;;19.60;28.60;;;;;;6125340;23;20717;-79
2022/04/18 12:21:42;;;;;;;3.10;2.22;;;19.40;29.20;;;;;;6112784;23;20383;-79
2022/04/18 12:24:10;;;;;;;3.92;2.47;;;19.10;29.50;;;;;;6122838;23;20856;-78
2022/04/18 12:26:39;;;;;;;3.60;2.37;;;19.10;30.70;;;;;;6123240;23;20376;-77
2022/04/18 12:29:28;;;;;;;6.13;2.60;;;19.40;30.00;;;;;;6119775;23;20395;-81
2022/04/18 12:32:00;;;;;;;5.90;2.45;;;19.20;28.80;;;;;;6106925;23;20383;-77
2022/04/18 12:34:27;;;;;;;5.90;2.77;;;19.30;30.40;;;;;;6123024;23;20372;-77
2022/04/18 12:36:59;;;;;;;4.78;2.80;;;19.30;28.20;;;;;;6121284;23;20435;-76
2022/04/18 12:39:27;;;;;;;5.67;2.70;;;19.60;30.20;;;;;;6117551;23;20431;-85
2022/04/18 12:42:04;;;;;;;5.72;2.50;;;19.50;27.90;;;;;;6120598;23;20450;-77
2022/04/18 12:44:32;;;;;;;5.50;2.85;;;19.80;29.40;;;;;;6123328;23;20372;-78
2022/04/18 12:47:02;;;;;;;4.20;2.60;;;19.90;29.20;;;;;;6122781;23;20383;-83
2022/04/18 12:49:33;;;;;;;5.40;2.57;;;20.20;29.50;;;;;;6124367;23;20420;-85
2022/04/18 12:52:06;;;;;;;5.57;2.38;;;20.30;29.20;;;;;;6122687;23;20379;-83
2022/04/18 12:54:32;;;;;;;5.00;2.40;;;20.50;28.40;;;;;;6113281;23;20921;-77
2022/04/18 12:56:59;;;;;;;6.25;2.70;;;20.30;27.50;;;;;;6121915;23;20919;-78
2022/04/18 12:59:28;;;;;;;5.07;2.38;;;20.40;27.50;;;;;;6122290;23;20434;-76
2022/04/18 13:02:06;;;;;;;4.25;2.42;;;20.90;28.10;;;;;;6122852;23;20395;-81
2022/04/18 13:04:34;;;;;;;4.18;2.40;;;21.30;26.90;;;;;;6146404;23;20378;-77
2022/04/18 13:07:06;;;;;;;4.32;2.40;;;21.70;27.90;;;;;;6123955;23;20446;-84
2022/04/18 13:09:34;;;;;;;5.25;2.60;;;22.00;26.90;;;;;;6121098;23;20368;-80
2022/04/18 13:12:08;;;;;;;2.88;2.17;;;21.70;26.70;;;;;;6122121;23;20761;-77
2022/04/18 13:15:05;;;;;;;5.17;2.60;;;21.40;26.40;;;;;;6122761;23;20431;-77
2022/04/18 13:17:35;;;;;;;7.05;2.60;;;21.50;27.50;;;;;;6122099;23;20368;-80